Time;durP1;ratioP1;P1;durP2;ratioP2;P2;SDS_P1;SDS_P2;PMS_P1;PMS_P2;Temp;Humidity;BMP_temperature;BMP_pressure;BME280_temperature;BME280_humidity;BME280_pressure;Samples;Min_cycle;Max_cycle;Signal;HPM_P1;HPM_P2
2023/04/17 00:00:30;;;;;;;;;;;;;;;4.58;49.18;102543.34;5032944;28;20373;-72
2023/04/17 00:02:55;;;;;;;;;;;;;;;4.54;49.60;102540.03;5030573;28;19913;-73
2023/04/17 00:05:22;;;;;;;;;;;;;;;4.50;48.95;102546.41;5032920;28;19924;-73
2023/04/17 00:07:47;;;;;;;;;;;;;;;4.47;48.25;102536.00;5034273;28;19913;-73
2023/04/17 00:10:13;;;;;;;;;;;;;;;4.44;49.13;102544.09;5036348;28;20015;-72
2023/04/17 00:12:38;;;;;;;;;;;;;;;4.41;49.70;102541.63;5036001;28;19939;-73
2023/04/17 00:15:04;;;;;;;;;;;;;;;4.37;49.60;102540.06;5035772;28;19917;-73
2023/04/17 00:17:30;;;;;;;;;;;;;;;4.34;49.65;102532.31;5045622;28;19933;-73
2023/04/17 00:19:55;;;;;;;;;;;;;;;4.32;49.37;102545.56;5035998;28;19917;-71
2023/04/17 00:22:21;;;;;;;;;;;;;;;4.31;50.27;102537.72;5036047;28;19917;-73
2023/04/17 00:24:46;;;;;;;;;;;;;;;4.29;50.21;102542.22;5034590;28;19936;-72
2023/04/17 00:27:11;;;;;;;;;;;;;;;4.26;49.26;102537.97;5036010;28;19913;-73
2023/04/17 00:29:37;;;;;;;;;;;;;;;4.23;49.51;102534.63;5035838;28;19975;-73
2023/04/17 00:32:03;;;;;;;;;;;;;;;4.18;50.72;102539.28;5035594;28;19913;-73
2023/04/17 00:34:28;;;;;;;;;;;;;;;4.12;51.60;102539.59;5035796;28;19971;-72
2023/04/17 00:36:53;;;;;;;;;;;;;;;4.08;50.64;102538.06;5035885;28;19959;-72
2023/04/17 00:39:19;;;;;;;;;;;;;;;4.06;51.36;102539.94;5035870;28;19964;-71
2023/04/17 00:41:44;;;;;;;;;;;;;;;4.02;52.51;102533.94;5034095;28;19913;-72
2023/04/17 00:44:10;;;;;;;;;;;;;;;3.99;51.52;102537.56;5037286;28;19917;-72
2023/04/17 00:46:35;;;;;;;;;;;;;;;3.98;50.75;102535.88;5035394;28;19917;-72
2023/04/17 00:49:00;;;;;;;;;;;;;;;3.96;51.06;102535.09;5034999;28;19913;-73
2023/04/17 00:51:26;;;;;;;;;;;;;;;3.94;50.98;102536.97;5018174;28;19975;-73
2023/04/17 00:53:52;;;;;;;;;;;;;;;3.91;52.82;102545.03;5045980;28;19920;-71
2023/04/17 00:56:18;;;;;;;;;;;;;;;3.88;52.14;102544.31;5041878;28;19920;-71
2023/04/17 00:58:43;;;;;;;;;;;;;;;3.85;52.53;102542.69;5052580;28;19924;-72
2023/04/17 01:01:08;;;;;;;;;;;;;;;3.81;52.61;102543.78;5052795;28;19913;-70
2023/04/17 01:03:34;;;;;;;;;;;;;;;3.81;53.62;102548.19;5054896;28;19916;-72
2023/04/17 01:06:00;;;;;;;;;;;;;;;3.79;52.85;102543.00;5053840;28;19913;-71
2023/04/17 01:08:25;;;;;;;;;;;;;;;3.78;52.14;102549.22;5053430;28;19920;-71
2023/04/17 01:10:50;;;;;;;;;;;;;;;3.74;52.80;102551.09;5052017;28;20368;-73
2023/04/17 01:13:16;;;;;;;;;;;;;;;3.71;52.96;102547.78;5054636;28;19939;-71
2023/04/17 01:15:41;;;;;;;;;;;;;;;3.68;52.98;102550.56;5055248;28;19913;-72
2023/04/17 01:18:07;;;;;;;;;;;;;;;3.65;53.57;102548.94;5056495;28;19924;-70
2023/04/17 01:20:32;;;;;;;;;;;;;;;3.62;54.20;102548.22;5056218;28;19913;-72
2023/04/17 01:22:58;;;;;;;;;;;;;;;3.60;53.78;102550.09;5055580;28;19913;-70
2023/04/17 01:25:25;;;;;;;;;;;;;;;3.60;54.39;102539.53;5053939;28;19913;-74
2023/04/17 01:27:50;;;;;;;;;;;;;;;3.58;53.84;102544.03;5053463;28;20315;-71
2023/04/17 01:30:15;;;;;;;;;;;;;;;3.55;54.20;102549.47;5056452;28;19917;-72
2023/04/17 01:32:41;;;;;;;;;;;;;;;3.52;53.92;102545.19;5056852;28;19901;-72
2023/04/17 01:35:06;;;;;;;;;;;;;;;3.49;54.51;102540.06;5056158;28;19916;-71
2023/04/17 01:37:31;;;;;;;;;;;;;;;3.47;54.33;102544.56;5053963;28;19952;-71
2023/04/17 01:39:57;;;;;;;;;;;;;;;3.43;55.62;102548.25;5055199;28;19908;-74
2023/04/17 01:42:23;;;;;;;;;;;;;;;3.42;54.74;102549.16;5049452;28;19920;-71
2023/04/17 01:44:48;;;;;;;;;;;;;;;3.39;55.43;102546.69;5054504;28;19917;-73
2023/04/17 01:47:13;;;;;;;;;;;;;;;3.38;54.91;102553.75;5053432;28;19913;-73
2023/04/17 01:49:39;;;;;;;;;;;;;;;3.37;54.59;102541.50;5039159;28;19913;-71
2023/04/17 01:52:04;;;;;;;;;;;;;;;3.36;55.55;102547.69;5035448;28;19913;-71
2023/04/17 01:54:29;;;;;;;;;;;;;;;3.37;54.73;102540.63;5035117;28;19913;-70
2023/04/17 01:56:55;;;;;;;;;;;;;;;3.38;55.01;102550.25;5046027;28;19920;-70
2023/04/17 01:59:21;;;;;;;;;;;;;;;3.40;54.24;102548.41;5040719;28;20032;-73
2023/04/17 02:01:48;;;;;;;;;;;;;;;3.41;54.23;102545.69;5034897;28;19952;-71
2023/04/17 02:04:13;;;;;;;;;;;;;;;3.44;54.83;102547.31;5036177;28;19921;-71
2023/04/17 02:06:38;;;;;;;;;;;;;;;3.45;55.93;102548.16;5041290;28;19939;-71
2023/04/17 02:09:03;;;;;;;;;;;;;;;3.43;56.07;102541.19;5043617;28;20405;-70
2023/04/17 02:11:29;;;;;;;;;;;;;;;3.43;56.23;102546.47;5034731;28;19935;-73
2023/04/17 02:13:54;;;;;;;;;;;;;;;3.42;57.00;102543.91;5034114;28;20407;-71
2023/04/17 02:16:22;;;;;;;;;;;;;;;3.42;56.17;102539.50;5034236;28;20366;-71
2023/04/17 02:18:48;;;;;;;;;;;;;;;3.46;55.09;102547.25;5033917;28;19920;-72
2023/04/17 02:21:14;;;;;;;;;;;;;;;3.47;57.07;102543.69;5034141;28;19913;-73
2023/04/17 02:23:39;;;;;;;;;;;;;;;3.46;56.92;102542.81;5038055;28;19913;-71
2023/04/17 02:26:04;;;;;;;;;;;;;;;3.47;57.01;102541.03;5056304;28;19939;-72
2023/04/17 02:28:30;;;;;;;;;;;;;;;3.47;57.43;102547.19;5038615;28;20017;-73
2023/04/17 02:30:55;;;;;;;;;;;;;;;3.48;58.12;102542.78;5040873;28;20032;-71
2023/04/17 02:33:20;;;;;;;;;;;;;;;3.50;58.43;102543.56;5045275;28;19917;-71
2023/04/17 02:35:46;;;;;;;;;;;;;;;3.50;57.86;102547.06;5035413;28;20272;-71
2023/04/17 02:38:11;;;;;;;;;;;;;;;3.51;58.63;102543.50;5034934;28;20384;-72
2023/04/17 02:40:37;;;;;;;;;;;;;;;3.49;58.11;102544.50;5035526;28;19913;-73
2023/04/17 02:43:02;;;;;;;;;;;;;;;3.48;57.71;102542.78;5033495;28;19912;-71
2023/04/17 02:45:28;;;;;;;;;;;;;;;3.48;56.85;102546.28;5033328;28;19917;-75
2023/04/17 02:47:53;;;;;;;;;;;;;;;3.47;57.37;102548.94;5033643;28;20015;-74
2023/04/17 02:50:19;;;;;;;;;;;;;;;3.48;57.25;102553.31;5033950;28;19956;-74
2023/04/17 02:52:44;;;;;;;;;;;;;;;3.47;57.96;102552.47;5032871;28;19921;-73
2023/04/17 02:55:09;;;;;;;;;;;;;;;3.49;57.72;102555.03;5032823;28;19920;-73
2023/04/17 02:57:35;;;;;;;;;;;;;;;3.53;57.51;102557.44;5032757;28;20309;-72
2023/04/17 03:00:00;;;;;;;;;;;;;;;3.58;56.48;102555.44;5033297;28;19953;-74
2023/04/17 03:02:25;;;;;;;;;;;;;;;3.63;56.21;102552.56;5033056;28;19913;-75
2023/04/17 03:04:51;;;;;;;;;;;;;;;3.66;56.20;102552.41;5031911;28;19917;-71
2023/04/17 03:07:18;;;;;;;;;;;;;;;3.68;57.25;102555.81;5032889;28;19917;-72
2023/04/17 03:09:46;;;;;;;;;;;;;;;3.70;57.21;102560.09;5031303;28;19991;-73
2023/04/17 03:12:11;;;;;;;;;;;;;;;3.74;56.60;102560.78;5032487;28;19919;-72
2023/04/17 03:14:36;;;;;;;;;;;;;;;3.79;56.30;102569.34;5032601;28;20024;-72
2023/04/17 03:17:02;;;;;;;;;;;;;;;3.84;56.44;102562.06;5032758;28;20392;-72
2023/04/17 03:19:27;;;;;;;;;;;;;;;3.89;56.62;102564.47;5032516;28;20016;-71
2023/04/17 03:21:52;;;;;;;;;;;;;;;3.94;56.35;102568.59;5031627;28;19913;-73
2023/04/17 03:24:18;;;;;;;;;;;;;;;4.02;55.73;102569.06;5032616;28;19913;-74
2023/04/17 03:26:43;;;;;;;;;;;;;;;4.12;54.97;102568.63;5032651;28;19956;-72
2023/04/17 03:29:08;;;;;;;;;;;;;;;4.22;56.20;102572.50;5032546;28;20015;-72
2023/04/17 03:31:34;;;;;;;;;;;;;;;4.28;57.29;102572.16;5032930;28;19913;-71
2023/04/17 03:33:59;;;;;;;;;;;;;;;4.35;56.99;102570.94;5032477;28;19913;-71
2023/04/17 03:36:25;;;;;;;;;;;;;;;4.47;55.62;102580.00;5031420;28;19913;-71
2023/04/17 03:38:51;;;;;;;;;;;;;;;4.80;53.70;102580.03;5032494;28;19913;-72
2023/04/17 03:41:16;;;;;;;;;;;;;;;5.34;53.96;102580.66;5032221;28;19936;-73
2023/04/17 03:43:41;;;;;;;;;;;;;;;5.86;51.88;102583.88;5035873;28;19913;-73
2023/04/17 03:46:11;;;;;;;;;;;;;;;6.04;51.30;102584.63;5036802;28;19940;-72
2023/04/17 03:48:37;;;;;;;;;;;;;;;5.94;51.71;102586.94;5036473;28;20345;-71
2023/04/17 03:51:02;;;;;;;;;;;;;;;5.99;52.43;102586.69;5037372;28;19913;-71
2023/04/17 03:53:29;;;;;;;;;;;;;;;6.09;51.32;102590.53;5036494;28;19917;-71
2023/04/17 03:55:55;;;;;;;;;;;;;;;6.06;51.01;102585.38;5036316;28;19940;-72
2023/04/17 03:58:20;;;;;;;;;;;;;;;5.91;51.11;102581.84;5036342;28;19920;-73
2023/04/17 04:00:47;;;;;;;;;;;;;;;5.69;52.11;102587.47;5036037;28;19975;-73
2023/04/17 04:03:12;;;;;;;;;;;;;;;5.47;52.60;102584.31;5036002;28;19917;-74
2023/04/17 04:05:38;;;;;;;;;;;;;;;5.28;53.74;102581.84;5036477;28;20016;-73
2023/04/17 04:08:03;;;;;;;;;;;;;;;5.15;53.39;102592.19;5036100;28;19953;-72
2023/04/17 04:10:28;;;;;;;;;;;;;;;5.05;53.82;102591.00;5035996;28;19913;-74
2023/04/17 04:12:54;;;;;;;;;;;;;;;4.97;54.00;102580.00;5035496;28;20369;-72
2023/04/17 04:15:19;;;;;;;;;;;;;;;4.90;53.10;102589.16;5036193;28;19913;-69
2023/04/17 04:17:44;;;;;;;;;;;;;;;4.84;53.24;102589.50;5037420;28;19913;-75
2023/04/17 04:20:10;;;;;;;;;;;;;;;4.77;53.28;102586.34;5036061;28;19913;-74
2023/04/17 04:22:35;;;;;;;;;;;;;;;4.73;52.80;102590.06;5036512;28;20508;-72
2023/04/17 04:25:01;;;;;;;;;;;;;;;4.73;52.43;102594.50;5034875;28;20391;-72
2023/04/17 04:27:26;;;;;;;;;;;;;;;4.75;53.07;102593.47;5035241;28;19924;-73
2023/04/17 04:29:52;;;;;;;;;;;;;;;4.74;53.06;102596.19;5037815;28;19913;-71
2023/04/17 04:32:17;;;;;;;;;;;;;;;4.74;52.82;102601.47;5036868;28;19967;-74
2023/04/17 04:34:43;;;;;;;;;;;;;;;4.75;52.09;102600.53;5045526;28;19920;-70
2023/04/17 04:37:09;;;;;;;;;;;;;;;4.77;53.49;102598.69;5051456;28;20331;-70
2023/04/17 04:39:36;;;;;;;;;;;;;;;4.76;53.79;102604.88;5044336;28;19959;-69
2023/04/17 04:42:04;;;;;;;;;;;;;;;4.71;54.11;102599.84;5047005;28;19953;-68
2023/04/17 04:44:30;;;;;;;;;;;;;;;4.67;54.56;102611.50;5040668;28;20432;-70
2023/04/17 04:46:56;;;;;;;;;;;;;;;4.61;54.55;102617.06;5043327;28;19921;-70
2023/04/17 04:49:22;;;;;;;;;;;;;;;4.55;54.92;102615.63;5027461;28;20384;-71
2023/04/17 04:51:47;;;;;;;;;;;;;;;4.53;55.09;102614.84;5035544;28;19947;-70
2023/04/17 04:54:12;;;;;;;;;;;;;;;4.51;55.06;102616.72;5035781;28;19920;-70
2023/04/17 04:56:38;;;;;;;;;;;;;;;4.55;54.72;102614.75;5036119;28;20000;-70
2023/04/17 04:59:04;;;;;;;;;;;;;;;4.59;54.82;102621.59;5038165;28;20345;-68
2023/04/17 05:01:29;;;;;;;;;;;;;;;4.70;53.96;102616.63;5035090;28;19999;-70
2023/04/17 05:03:55;;;;;;;;;;;;;;;4.84;54.40;102619.38;5034718;28;19917;-69
2023/04/17 05:06:20;;;;;;;;;;;;;;;4.96;53.96;102620.56;5035002;28;19917;-72
2023/04/17 05:08:45;;;;;;;;;;;;;;;5.03;53.42;102616.63;5034536;28;19924;-69
2023/04/17 05:11:11;;;;;;;;;;;;;;;5.10;53.16;102620.66;5016640;28;19967;-70
2023/04/17 05:13:36;;;;;;;;;;;;;;;5.16;53.27;102620.31;5034210;28;20343;-69
2023/04/17 05:16:01;;;;;;;;;;;;;;;5.20;53.26;102621.88;5034521;28;19913;-72
2023/04/17 05:18:27;;;;;;;;;;;;;;;5.26;52.56;102613.63;5034559;28;19913;-70
2023/04/17 05:20:52;;;;;;;;;;;;;;;5.35;52.39;102619.34;5034606;28;20001;-70
2023/04/17 05:23:21;;;;;;;;;;;;;;;5.44;52.50;102624.09;5016533;28;20331;-71
2023/04/17 05:25:47;;;;;;;;;;;;;;;5.53;52.39;102618.34;5034212;28;19923;-72
2023/04/17 05:28:12;;;;;;;;;;;;;;;5.63;51.33;102624.81;5035687;28;20003;-72
2023/04/17 05:30:38;;;;;;;;;;;;;;;5.72;51.10;102623.44;5045020;28;19913;-71
2023/04/17 05:33:03;;;;;;;;;;;;;;;5.81;51.46;102622.94;5049869;28;19963;-71
2023/04/17 05:35:28;;;;;;;;;;;;;;;5.82;50.38;102620.22;5044137;28;19936;-71
2023/04/17 05:37:54;;;;;;;;;;;;;;;5.88;50.23;102625.16;5035095;28;20276;-73
2023/04/17 05:40:20;;;;;;;;;;;;;;;5.92;49.04;102630.28;5035262;28;19913;-70
2023/04/17 05:42:45;;;;;;;;;;;;;;;5.96;48.65;102631.81;5035019;28;19923;-71
2023/04/17 05:45:12;;;;;;;;;;;;;;;5.99;48.42;102635.13;5018589;28;20007;-71
2023/04/17 05:47:37;;;;;;;;;;;;;;;6.05;48.37;102631.28;5034848;28;19917;-71
2023/04/17 05:50:02;;;;;;;;;;;;;;;6.16;47.48;102626.25;5034243;28;20011;-70
2023/04/17 05:52:28;;;;;;;;;;;;;;;6.26;47.79;102627.41;5034205;28;19913;-72
2023/04/17 05:54:53;;;;;;;;;;;;;;;6.34;46.62;102627.81;5033651;28;19913;-71
2023/04/17 05:57:19;;;;;;;;;;;;;;;6.44;46.85;102626.34;5033720;28;19920;-67
2023/04/17 05:59:45;;;;;;;;;;;;;;;6.60;45.97;102628.06;5033592;28;19912;-74
2023/04/17 06:02:10;;;;;;;;;;;;;;;6.71;45.99;102626.50;5033723;28;19936;-72
2023/04/17 06:04:35;;;;;;;;;;;;;;;6.75;45.13;102621.88;5033586;28;19924;-72
2023/04/17 06:07:01;;;;;;;;;;;;;;;6.74;45.34;102625.47;5016010;28;19917;-71
2023/04/17 06:09:27;;;;;;;;;;;;;;;6.85;45.40;102628.31;5033494;28;19917;-71
2023/04/17 06:11:52;;;;;;;;;;;;;;;6.99;45.01;102623.03;5033516;28;20377;-71
2023/04/17 06:14:17;;;;;;;;;;;;;;;7.09;44.27;102621.50;5033130;28;19920;-69
2023/04/17 06:16:43;;;;;;;;;;;;;;;7.24;44.17;102619.72;5015666;28;19920;-72
2023/04/17 06:19:08;;;;;;;;;;;;;;;7.37;43.69;102622.44;5033385;28;19920;-72
2023/04/17 06:21:33;;;;;;;;;;;;;;;7.48;43.45;102619.94;5033335;28;19913;-72
2023/04/17 06:23:59;;;;;;;;;;;;;;;7.56;41.33;102625.66;5032931;28;19913;-72
2023/04/17 06:26:24;;;;;;;;;;;;;;;7.66;42.19;102621.44;5033358;28;19913;-71
2023/04/17 06:28:49;;;;;;;;;;;;;;;7.76;41.36;102625.19;5033744;28;20048;-70
2023/04/17 06:31:15;;;;;;;;;;;;;;;7.80;40.53;102623.19;5034214;28;19913;-73
2023/04/17 06:33:40;;;;;;;;;;;;;;;7.84;39.62;102634.50;5033205;28;20015;-71
2023/04/17 06:36:06;;;;;;;;;;;;;;;7.78;39.90;102636.56;5033193;28;19916;-68
2023/04/17 06:38:31;;;;;;;;;;;;;;;7.89;39.91;102632.38;5032997;28;19913;-70
2023/04/17 06:40:56;;;;;;;;;;;;;;;7.94;39.66;102631.13;5032953;28;19935;-69
2023/04/17 06:43:22;;;;;;;;;;;;;;;7.99;39.01;102636.13;5032829;28;20387;-70
2023/04/17 06:45:47;;;;;;;;;;;;;;;7.99;38.50;102638.78;5033307;28;19945;-72
2023/04/17 06:48:13;;;;;;;;;;;;;;;7.93;38.77;102641.84;5032642;28;20008;-71
2023/04/17 06:50:39;;;;;;;;;;;;;;;7.94;39.37;102635.56;5032585;28;19961;-71
2023/04/17 06:53:04;;;;;;;;;;;;;;;7.89;38.63;102638.53;5014914;28;19936;-72
2023/04/17 06:55:30;;;;;;;;;;;;;;;7.89;39.00;102637.69;5032628;28;19913;-70
2023/04/17 06:57:55;;;;;;;;;;;;;;;7.85;39.21;102642.34;5032689;28;19913;-72
2023/04/17 07:00:20;;;;;;;;;;;;;;;7.88;39.73;102638.63;5032937;28;20411;-70
2023/04/17 07:02:46;;;;;;;;;;;;;;;7.95;38.80;102640.78;5032769;28;20007;-69
2023/04/17 07:05:12;;;;;;;;;;;;;;;8.03;38.94;102649.09;5033351;28;20572;-66
2023/04/17 07:07:38;;;;;;;;;;;;;;;8.17;38.54;102644.69;5033207;28;19940;-68
2023/04/17 07:10:04;;;;;;;;;;;;;;;8.31;38.58;102645.47;5032990;28;19913;-68
2023/04/17 07:12:29;;;;;;;;;;;;;;;8.40;38.08;102643.22;4998784;28;20320;-68
2023/04/17 07:14:55;;;;;;;;;;;;;;;8.44;37.61;102650.00;5033706;28;19913;-73
2023/04/17 07:17:20;;;;;;;;;;;;;;;8.49;37.68;102659.38;5032081;28;20357;-70
2023/04/17 07:19:45;;;;;;;;;;;;;;;8.50;36.45;102649.59;5033335;28;20396;-69
2023/04/17 07:22:11;;;;;;;;;;;;;;;8.56;36.33;102654.50;5033054;28;20803;-72
2023/04/17 07:24:36;;;;;;;;;;;;;;;8.63;36.82;102656.63;5032486;28;19971;-69
2023/04/17 07:27:02;;;;;;;;;;;;;;;8.72;36.08;102657.81;5032706;28;19913;-68
2023/04/17 07:29:27;;;;;;;;;;;;;;;8.79;36.29;102664.41;5037724;28;20416;-70
2023/04/17 07:31:52;;;;;;;;;;;;;;;8.87;35.45;102659.41;5033013;28;20369;-71
2023/04/17 07:34:18;;;;;;;;;;;;;;;8.92;35.92;102657.28;5047966;28;19956;-69
2023/04/17 07:36:44;;;;;;;;;;;;;;;8.99;35.59;102658.59;5032454;28;19958;-71
2023/04/17 07:39:09;;;;;;;;;;;;;;;8.99;35.22;102663.91;5032395;28;19917;-70
2023/04/17 07:41:35;;;;;;;;;;;;;;;9.04;35.28;102660.06;5032251;28;20365;-70
2023/04/17 07:44:02;;;;;;;;;;;;;;;9.15;34.57;102661.00;5031376;28;20448;-68
2023/04/17 07:46:27;;;;;;;;;;;;;;;9.27;34.07;102664.63;5032625;28;20299;-71
2023/04/17 07:49:18;;;;;;;;;;;;;;;9.33;33.63;102672.19;5033700;28;19974;-69
2023/04/17 07:51:43;;;;;;;;;;;;;;;9.47;34.61;102671.19;5033153;28;19917;-71
2023/04/17 07:54:09;;;;;;;;;;;;;;;9.50;33.25;102666.50;5032437;28;19920;-70
2023/04/17 07:56:35;;;;;;;;;;;;;;;9.59;33.92;102673.00;5032541;28;19913;-71
2023/04/17 07:59:01;;;;;;;;;;;;;;;9.70;34.01;102672.22;5032540;28;19913;-69
2023/04/17 08:01:26;;;;;;;;;;;;;;;9.76;33.31;102672.63;5031088;28;20369;-69
2023/04/17 08:06:45;;;;;;;;;;;;;;;9.91;34.36;102674.19;5032395;28;19924;-69
2023/04/17 08:09:10;;;;;;;;;;;;;;;9.98;34.03;102671.91;5032136;28;19917;-71
2023/04/17 08:11:37;;;;;;;;;;;;;;;10.07;32.50;102676.56;5031151;28;19917;-71
2023/04/17 08:14:02;;;;;;;;;;;;;;;10.17;33.10;102674.09;5046285;28;20285;-70
2023/04/17 08:16:28;;;;;;;;;;;;;;;10.28;32.55;102675.97;5040532;28;19913;-70
2023/04/17 08:18:53;;;;;;;;;;;;;;;10.37;32.75;102677.94;5040362;28;20345;-71
2023/04/17 08:21:18;;;;;;;;;;;;;;;10.37;33.48;102681.44;5043247;28;20448;-71
2023/04/17 08:23:44;;;;;;;;;;;;;;;10.35;31.29;102680.72;5040974;28;19919;-70
2023/04/17 08:26:09;;;;;;;;;;;;;;;10.37;33.01;102676.13;5028426;28;19912;-72
2023/04/17 08:28:34;;;;;;;;;;;;;;;10.42;33.05;102684.66;5044895;28;19967;-73
2023/04/17 08:31:00;;;;;;;;;;;;;;;10.49;31.81;102674.38;5048988;28;19913;-71
2023/04/17 08:33:25;;;;;;;;;;;;;;;10.54;31.72;102686.38;5046213;28;19912;-72
2023/04/17 08:35:51;;;;;;;;;;;;;;;10.45;31.17;102678.25;5043464;28;20481;-72
2023/04/17 08:38:16;;;;;;;;;;;;;;;10.37;31.93;102676.13;5049524;28;20364;-70
2023/04/17 08:40:45;;;;;;;;;;;;;;;10.33;32.34;102676.47;5055469;28;19913;-67
2023/04/17 08:43:14;;;;;;;;;;;;;;;10.40;31.91;102683.03;5070546;28;19978;-69
2023/04/17 08:45:45;;;;;;;;;;;;;;;10.43;32.54;102688.16;5075907;28;19913;-70
2023/04/17 08:48:12;;;;;;;;;;;;;;;10.49;31.73;102675.22;5061879;28;19913;-69
2023/04/17 08:50:40;;;;;;;;;;;;;;;10.61;32.52;102678.75;5057186;28;20315;-72
2023/04/17 08:53:06;;;;;;;;;;;;;;;10.71;32.48;102689.59;5057335;28;19935;-70
2023/04/17 08:55:31;;;;;;;;;;;;;;;10.79;31.94;102680.03;5055759;28;20349;-69
2023/04/17 08:57:58;;;;;;;;;;;;;;;10.84;31.48;102680.53;5055810;28;19964;-69
2023/04/17 09:00:30;;;;;;;;;;;;;;;10.94;31.58;102685.16;5054753;28;19913;-70
2023/04/17 09:02:56;;;;;;;;;;;;;;;10.99;30.58;102689.19;5036778;28;19999;-72
2023/04/17 09:05:22;;;;;;;;;;;;;;;11.08;31.60;102684.94;5055106;28;19927;-71
2023/04/17 09:07:48;;;;;;;;;;;;;;;11.20;31.30;102689.31;5054739;28;19913;-70
2023/04/17 09:10:14;;;;;;;;;;;;;;;11.24;30.83;102692.59;5054427;28;19920;-73
2023/04/17 09:12:40;;;;;;;;;;;;;;;11.27;30.39;102685.19;5054622;28;19963;-69
2023/04/17 09:15:15;;;;;;;;;;;;;;;11.28;29.60;102691.41;5054138;28;19956;-71
2023/04/17 09:17:41;;;;;;;;;;;;;;;11.07;30.06;102684.09;5054750;28;20272;-70
2023/04/17 09:20:07;;;;;;;;;;;;;;;11.12;30.55;102683.72;5054448;28;19916;-71
2023/04/17 09:22:34;;;;;;;;;;;;;;;11.22;30.57;102683.84;5054332;28;19913;-71
2023/04/17 09:25:00;;;;;;;;;;;;;;;11.29;31.18;102680.63;5054553;28;19913;-71
2023/04/17 09:27:26;;;;;;;;;;;;;;;11.39;30.64;102684.25;5054071;28;20368;-69
2023/04/17 09:29:59;;;;;;;;;;;;;;;11.41;30.63;102684.97;5055141;28;19935;-72
2023/04/17 09:32:25;;;;;;;;;;;;;;;11.45;30.69;102686.41;5054396;28;19939;-71
2023/04/17 09:34:52;;;;;;;;;;;;;;;11.50;30.92;102683.38;5054252;28;20341;-71
2023/04/17 09:37:17;;;;;;;;;;;;;;;11.43;30.13;102683.03;5054296;28;19917;-69
2023/04/17 09:39:56;;;;;;;;;;;;;;;11.46;29.90;102688.13;5053124;28;20411;-70
2023/04/17 09:42:22;;;;;;;;;;;;;;;11.52;29.86;102683.25;5053996;28;20273;-72
2023/04/17 09:44:48;;;;;;;;;;;;;;;11.61;30.15;102680.72;5056111;28;19919;-70
2023/04/17 09:47:15;;;;;;;;;;;;;;;11.69;30.87;102682.78;5053841;28;20368;-70
2023/04/17 09:49:41;;;;;;;;;;;;;;;11.66;29.73;102691.03;5053754;28;20345;-70
2023/04/17 09:52:07;;;;;;;;;;;;;;;11.65;29.50;102687.50;5036099;28;20031;-72
2023/04/17 09:54:36;;;;;;;;;;;;;;;11.67;29.67;102690.06;5054061;28;20346;-71
2023/04/17 09:57:03;;;;;;;;;;;;;;;11.68;29.58;102686.41;5055190;28;19958;-70
2023/04/17 09:59:29;;;;;;;;;;;;;;;11.72;29.86;102688.72;5054073;28;19998;-71
2023/04/17 10:01:55;;;;;;;;;;;;;;;11.72;29.97;102686.03;5053651;28;19913;-70
2023/04/17 10:04:21;;;;;;;;;;;;;;;11.73;29.99;102677.06;5053979;28;19924;-71
2023/04/17 10:06:46;;;;;;;;;;;;;;;11.83;30.30;102679.84;5053445;28;20047;-73
2023/04/17 10:09:12;;;;;;;;;;;;;;;11.88;29.45;102669.69;5053665;28;19966;-70
2023/04/17 10:11:39;;;;;;;;;;;;;;;11.96;29.97;102677.06;5053229;28;19920;-71
2023/04/17 10:14:14;;;;;;;;;;;;;;;11.99;29.67;102674.97;5053413;28;20476;-70
2023/04/17 10:16:43;;;;;;;;;;;;;;;12.07;29.87;102679.69;5035614;28;19913;-71
2023/04/17 10:19:22;;;;;;;;;;;;;;;12.07;29.75;102677.88;5053405;28;19912;-73
2023/04/17 10:22:08;;;;;;;;;;;;;;;12.00;28.81;102676.69;5052994;28;20085;-72
2023/04/17 10:24:34;;;;;;;;;;;;;;;11.86;28.69;102679.63;5052674;28;19913;-72
2023/04/17 10:27:00;;;;;;;;;;;;;;;11.86;29.33;102676.97;5035268;28;20257;-74
2023/04/17 10:29:44;;;;;;;;;;;;;;;11.92;28.62;102678.28;5053417;28;19912;-71
2023/04/17 10:32:09;;;;;;;;;;;;;;;11.95;29.33;102673.53;5053649;28;20241;-73
2023/04/17 10:34:38;;;;;;;;;;;;;;;12.02;29.31;102680.06;5053119;28;19920;-68
2023/04/17 10:37:04;;;;;;;;;;;;;;;11.99;28.70;102674.97;5053892;28;20241;-70
2023/04/17 10:39:47;;;;;;;;;;;;;;;11.96;28.75;102674.38;5055108;28;19920;-69
2023/04/17 10:42:16;;;;;;;;;;;;;;;11.99;28.79;102674.97;5052824;28;19919;-69
2023/04/17 10:44:43;;;;;;;;;;;;;;;12.02;28.19;102676.56;5052761;28;19920;-68
2023/04/17 10:47:09;;;;;;;;;;;;;;;12.06;29.18;102678.00;5053121;28;19913;-69
2023/04/17 10:49:53;;;;;;;;;;;;;;;12.09;28.93;102681.25;5052902;28;20386;-69
2023/04/17 10:52:30;;;;;;;;;;;;;;;11.98;28.87;102677.78;5051639;28;19924;-69
2023/04/17 10:55:06;;;;;;;;;;;;;;;11.92;29.08;102676.47;5050075;28;19952;-70
2023/04/17 10:57:50;;;;;;;;;;;;;;;11.97;28.75;102678.75;5033024;28;19923;-69
2023/04/17 11:00:17;;;;;;;;;;;;;;;12.01;28.95;102686.38;5033513;28;19913;-69
2023/04/17 11:02:47;;;;;;;;;;;;;;;12.03;29.04;102681.75;5052445;28;19923;-69
2023/04/17 11:05:12;;;;;;;;;;;;;;;12.03;29.42;102687.09;5052183;28;19923;-69
2023/04/17 11:07:37;;;;;;;;;;;;;;;12.02;29.52;102685.41;5052235;28;20023;-68
2023/04/17 11:10:06;;;;;;;;;;;;;;;12.13;29.57;102686.34;5052553;28;19913;-71
2023/04/17 11:12:31;;;;;;;;;;;;;;;12.15;29.16;102689.75;5052665;28;20019;-69
2023/04/17 11:15:00;;;;;;;;;;;;;;;12.15;29.31;102695.09;5052160;28;20011;-72
2023/04/17 11:17:26;;;;;;;;;;;;;;;12.13;29.26;102686.34;5052338;28;19913;-70
2023/04/17 11:19:52;;;;;;;;;;;;;;;12.12;29.01;102692.66;5052569;28;19913;-72
2023/04/17 11:22:18;;;;;;;;;;;;;;;11.91;28.87;102701.47;5052508;28;19913;-71
2023/04/17 11:24:43;;;;;;;;;;;;;;;11.86;29.64;102695.66;5052422;28;19912;-70
2023/04/17 11:27:08;;;;;;;;;;;;;;;11.95;29.50;102694.91;5051159;28;20375;-71
2023/04/17 11:29:34;;;;;;;;;;;;;;;11.98;29.73;102696.47;5052209;28;20377;-71
2023/04/17 11:32:00;;;;;;;;;;;;;;;12.01;29.18;102694.41;5052184;28;20395;-69
2023/04/17 11:34:25;;;;;;;;;;;;;;;11.83;28.96;102695.88;5052082;28;19913;-70
2023/04/17 11:36:57;;;;;;;;;;;;;;;11.78;29.64;102698.91;5052128;28;19913;-72
2023/04/17 11:39:23;;;;;;;;;;;;;;;11.74;28.90;102700.09;5052073;28;20272;-70
2023/04/17 11:41:52;;;;;;;;;;;;;;;11.76;28.84;102700.00;5034095;28;19917;-71
2023/04/17 11:44:19;;;;;;;;;;;;;;;11.82;28.82;102699.53;5034569;28;19916;-70
2023/04/17 11:47:04;;;;;;;;;;;;;;;11.80;28.77;102704.13;5026262;28;19900;-70
2023/04/17 11:49:31;;;;;;;;;;;;;;;11.79;29.27;102699.78;5075670;28;19981;-70
2023/04/17 11:51:58;;;;;;;;;;;;;;;11.85;29.08;102699.28;5056392;28;19917;-70
2023/04/17 11:54:26;;;;;;;;;;;;;;;11.91;29.26;102698.78;5033135;28;19920;-72
2023/04/17 11:57:02;;;;;;;;;;;;;;;11.97;29.31;102698.28;5032854;28;19913;-72
2023/04/17 11:59:34;;;;;;;;;;;;;;;12.07;28.87;102704.56;5033298;28;19924;-72
2023/04/17 12:02:00;;;;;;;;;;;;;;;12.03;28.53;102700.47;5031717;28;19913;-70
2023/04/17 12:04:28;;;;;;;;;;;;;;;11.91;28.30;102701.47;5034807;28;19924;-70
2023/04/17 12:06:53;;;;;;;;;;;;;;;11.81;28.06;102703.16;5035883;28;19917;-70
2023/04/17 12:09:23;;;;;;;;;;;;;;;11.71;28.46;102696.84;5035658;28;19913;-70
2023/04/17 12:11:49;;;;;;;;;;;;;;;11.72;28.56;102709.22;5035874;28;19967;-70
2023/04/17 12:14:15;;;;;;;;;;;;;;;11.77;28.42;102699.88;5035282;28;19920;-68
2023/04/17 12:16:40;;;;;;;;;;;;;;;11.79;28.19;102702.44;5036659;28;19913;-68
2023/04/17 12:19:25;;;;;;;;;;;;;;;11.76;28.05;102705.31;5035841;28;19913;-71
2023/04/17 12:21:51;;;;;;;;;;;;;;;11.76;27.75;102708.00;5035322;28;19913;-69
2023/04/17 12:24:18;;;;;;;;;;;;;;;11.85;27.58;102709.09;5033237;28;20305;-70
2023/04/17 12:26:47;;;;;;;;;;;;;;;11.90;27.17;102709.59;5035446;28;20424;-69
2023/04/17 12:29:13;;;;;;;;;;;;;;;11.91;27.47;102704.13;5047278;28;19912;-69
2023/04/17 12:31:38;;;;;;;;;;;;;;;11.93;27.56;102699.53;5054995;28;19913;-71
2023/04/17 12:34:04;;;;;;;;;;;;;;;11.99;27.73;102707.03;5055161;28;19912;-69
2023/04/17 12:36:29;;;;;;;;;;;;;;;12.01;27.12;102697.06;5055895;28;19920;-71
2023/04/17 12:38:55;;;;;;;;;;;;;;;12.08;27.57;102700.94;5055138;28;19913;-72
2023/04/17 12:41:20;;;;;;;;;;;;;;;12.13;27.64;102697.03;5054779;28;20012;-70